Time;durP1;ratioP1;P1;durP2;ratioP2;P2;SDS_P1;SDS_P2;PMS_P1;PMS_P2;Temp;Humidity;BMP_temperature;BMP_pressure;BME280_temperature;BME280_humidity;BME280_pressure;Samples;Min_cycle;Max_cycle;Signal;HPM_P1;HPM_P2
2021/08/09 00:04:22;;;;;;;0.10;0.10;;;;;;;13.28;84.54;101349.06;10451220;28;20032;-87
2021/08/09 00:09:22;;;;;;;0.10;0.10;;;;;;;13.22;84.73;101340.84;10451162;28;20029;-89
2021/08/09 00:14:23;;;;;;;0.10;0.10;;;;;;;13.19;84.86;101351.88;10447144;28;20051;-89
2021/08/09 00:19:23;;;;;;;0.10;0.10;;;;;;;13.17;85.35;101349.34;10447448;28;20036;-89
2021/08/09 00:24:23;;;;;;;0.10;0.10;;;;;;;13.17;85.64;101345.84;10423557;23;20061;-90
2021/08/09 00:29:24;;;;;;;0.10;0.10;;;;;;;13.14;85.13;101342.47;10380361;28;20272;-91
2021/08/09 00:34:24;;;;;;;0.10;0.10;;;;;;;13.20;85.61;101343.66;10361874;28;20037;-91
2021/08/09 00:39:24;;;;;;;0.10;0.10;;;;;;;13.29;85.08;101336.53;10354318;28;20034;-91
2021/08/09 00:44:25;;;;;;;0.10;0.10;;;;;;;13.39;84.61;101339.06;10371422;28;20037;-91
2021/08/09 00:49:25;;;;;;;0.13;0.13;;;;;;;13.45;84.84;101336.56;10363698;28;20025;-90
2021/08/09 00:54:26;;;;;;;0.10;0.10;;;;;;;13.54;84.43;101340.09;10343666;28;20478;-90
2021/08/09 00:59:30;;;;;;;0.10;0.10;;;;;;;13.61;84.53;101337.56;10370675;28;20044;-90
2021/08/09 01:04:30;;;;;;;;;;;;;;;13.71;84.02;101339.09;10366510;28;20038;-90
2021/08/09 01:09:53;;;;;;;0.10;0.10;;;;;;;13.68;84.10;101330.56;10362899;28;19909;-91
2021/08/09 01:15:11;;;;;;;0.10;0.10;;;;;;;13.77;84.42;101338.41;10354360;28;20038;-90
2021/08/09 01:20:49;;;;;;;0.10;0.10;;;;;;;13.83;84.31;101350.28;10353598;28;20401;-91
2021/08/09 01:26:08;;;;;;;0.10;0.10;;;;;;;13.89;83.72;101343.44;10344426;28;20077;-90
2021/08/09 01:31:10;;;;;;;0.10;0.10;;;;;;;13.98;83.23;101340.56;10346057;28;20076;-91
2021/08/09 01:36:11;;;;;;;0.10;0.10;;;;;;;13.97;83.12;101335.41;10363512;28;20031;-91
2021/08/09 01:41:13;;;;;;;0.10;0.10;;;;;;;14.07;83.07;101341.41;10368457;28;20414;-91
2021/08/09 01:46:14;;;;;;;0.10;0.10;;;;;;;14.10;82.91;101340.22;10371655;28;20025;-92
2021/08/09 01:51:15;;;;;;;0.10;0.10;;;;;;;14.15;82.14;101343.25;10356235;28;20122;-90
2021/08/09 01:56:16;;;;;;;0.10;0.10;;;;;;;14.14;82.36;101352.28;10356042;28;20036;-90
2021/08/09 02:01:16;;;;;;;0.10;0.10;;;;;;;14.19;82.75;101352.59;10355371;28;20041;-91
2021/08/09 02:06:16;;;;;;;0.10;0.10;;;;;;;14.19;81.98;101339.22;10369913;28;20042;-90
2021/08/09 02:11:26;;;;;;;0.10;0.10;;;;;;;14.22;81.83;101345.09;10369552;28;20034;-90
2021/08/09 02:16:47;;;;;;;0.08;0.08;;;;;;;14.27;82.09;101357.94;10358864;28;20036;-90
2021/08/09 02:21:55;;;;;;;0.08;0.08;;;;;;;14.30;81.80;101352.25;10360336;28;20076;-90
2021/08/09 02:27:05;;;;;;;0.00;0.00;;;;;;;14.29;81.97;101365.84;10353532;28;20026;-91
2021/08/09 02:32:07;;;;;;;0.00;0.00;;;;;;;14.18;81.91;101351.78;10386517;28;20129;-90
2021/08/09 02:37:08;;;;;;;0.10;0.10;;;;;;;14.09;82.58;101350.13;10358677;28;20104;-91
2021/08/09 02:42:09;;;;;;;0.10;0.10;;;;;;;14.00;82.95;101356.50;10352472;28;20113;-90
2021/08/09 02:47:13;;;;;;;0.10;0.10;;;;;;;13.87;83.15;101354.31;10371027;28;20030;-90
2021/08/09 02:52:14;;;;;;;0.10;0.10;;;;;;;13.84;83.46;101362.66;10370658;28;20031;-90
2021/08/09 02:57:16;;;;;;;0.10;0.10;;;;;;;13.80;83.91;101366.69;10353251;28;20030;-90
2021/08/09 03:02:18;;;;;;;0.10;0.10;;;;;;;13.67;84.33;101361.00;10353527;28;20034;-92
2021/08/09 03:07:19;;;;;;;0.10;0.10;;;;;;;13.67;84.76;101366.34;10352427;28;20034;-89
2021/08/09 03:12:20;;;;;;;0.10;0.10;;;;;;;13.53;85.27;101365.19;10357440;28;20034;-90
2021/08/09 03:17:20;;;;;;;0.10;0.10;;;;;;;13.45;85.72;101368.66;10360450;28;20046;-91
2021/08/09 03:22:20;;;;;;;0.10;0.10;;;;;;;13.44;86.03;101376.84;10351174;28;20034;-91
2021/08/09 03:27:21;;;;;;;0.10;0.10;;;;;;;13.38;86.18;101378.38;10371920;28;20025;-91
2021/08/09 03:32:21;;;;;;;0.10;0.10;;;;;;;13.33;86.17;101386.03;10368014;28;20273;-91
2021/08/09 03:37:21;;;;;;;0.10;0.10;;;;;;;13.34;86.55;101393.06;10368431;28;20562;-91
2021/08/09 03:42:23;;;;;;;0.10;0.10;;;;;;;13.25;86.64;101394.00;10349625;28;20625;-90
2021/08/09 03:47:23;;;;;;;0.10;0.10;;;;;;;13.28;86.40;101401.75;10353410;28;20261;-91
2021/08/09 03:52:23;;;;;;;0.03;0.03;;;;;;;13.27;86.62;101398.22;10363455;28;20498;-90
2021/08/09 03:57:25;;;;;;;0.10;0.10;;;;;;;13.23;87.22;101394.16;10368767;28;20034;-90
2021/08/09 04:02:30;;;;;;;0.10;0.10;;;;;;;13.26;86.69;101396.53;10360671;28;20133;-91
2021/08/09 04:07:30;;;;;;;0.10;0.10;;;;;;;13.29;86.90;101401.59;10352818;28;20497;-91
2021/08/09 04:12:30;;;;;;;0.10;0.10;;;;;;;13.49;86.07;101395.94;10369359;28;20121;-92
2021/08/09 04:17:31;;;;;;;0.10;0.10;;;;;;;13.82;85.74;101415.56;10352685;28;20030;-91
2021/08/09 04:22:31;;;;;;;0.10;0.10;;;;;;;14.02;84.24;101413.38;10357823;28;20088;-91
2021/08/09 04:27:33;;;;;;;0.10;0.10;;;;;;;14.71;82.22;101420.03;10356151;28;20540;-92
2021/08/09 04:32:40;;;;;;;0.10;0.10;;;;;;;15.79;78.28;101410.47;10370250;28;20030;-91
2021/08/09 04:37:41;;;;;;;0.10;0.10;;;;;;;16.72;74.51;101420.03;10378122;28;20114;-91
2021/08/09 04:42:41;;;;;;;0.10;0.10;;;;;;;17.51;71.99;101422.94;10367840;28;20113;-90
2021/08/09 04:47:42;;;;;;;0.10;0.10;;;;;;;18.27;68.58;101425.97;10350114;28;20026;-91
2021/08/09 04:52:43;;;;;;;0.10;0.10;;;;;;;18.89;66.40;101429.75;10349120;28;20030;-92
2021/08/09 04:57:43;;;;;;;0.10;0.10;;;;;;;19.58;64.60;101426.06;10348171;28;20072;-91
2021/08/09 05:02:43;;;;;;;0.00;0.00;;;;;;;20.37;61.92;101429.09;10355265;28;20026;-91
2021/08/09 05:07:44;;;;;;;0.00;0.00;;;;;;;21.04;59.16;101433.34;10352584;28;20032;-90
2021/08/09 05:12:44;;;;;;;0.10;0.10;;;;;;;21.28;57.62;101422.84;10362264;28;20060;-92
2021/08/09 05:17:44;;;;;;;0.10;0.10;;;;;;;21.64;56.88;101433.06;10363458;28;20037;-89
2021/08/09 05:22:45;;;;;;;0.10;0.10;;;;;;;22.02;55.59;101446.63;10364168;28;20034;-90
2021/08/09 05:27:45;;;;;;;0.03;0.03;;;;;;;22.50;55.19;101440.59;10378986;28;20489;-90
2021/08/09 05:32:45;;;;;;;0.10;0.10;;;;;;;22.88;53.35;101445.00;10363094;28;20045;-90
2021/08/09 05:37:46;;;;;;;0.10;0.10;;;;;;;23.01;53.02;101431.31;10380363;28;20040;-90
2021/08/09 05:42:49;;;;;;;0.03;0.03;;;;;;;22.98;52.21;101453.50;10366659;28;20115;-90
2021/08/09 05:47:49;;;;;;;0.10;0.10;;;;;;;23.13;52.67;101455.84;10371120;28;20217;-89
2021/08/09 05:52:51;;;;;;;0.10;0.10;;;;;;;23.28;52.10;101444.56;10357228;28;20123;-89
2021/08/09 05:57:52;;;;;;;0.00;0.00;;;;;;;23.22;51.01;101446.31;10364019;28;20096;-89
2021/08/09 06:02:52;;;;;;;0.10;0.10;;;;;;;23.21;52.23;101449.25;10377761;28;20547;-89
2021/08/09 06:07:53;;;;;;;0.10;0.10;;;;;;;23.14;52.30;101438.47;10357046;28;20034;-90
2021/08/09 06:12:53;;;;;;;0.10;0.10;;;;;;;23.56;51.86;101446.72;10365438;28;20085;-90
2021/08/09 06:17:53;;;;;;;0.10;0.10;;;;;;;23.79;50.48;101428.84;10359504;28;20040;-91
2021/08/09 06:22:55;;;;;;;0.00;0.00;;;;;;;23.52;51.01;101450.13;10439294;23;20068;-92
2021/08/09 06:27:56;;;;;;;0.10;0.10;;;;;;;23.56;51.83;101449.44;10447667;28;20296;-93
2021/08/09 06:32:56;;;;;;;0.10;0.10;;;;;;;23.24;52.51;101448.78;10470542;28;20087;-92
2021/08/09 06:37:56;;;;;;;0.10;0.10;;;;;;;23.50;51.91;101445.75;10430818;28;20489;-93
2021/08/09 06:42:57;;;;;;;0.10;0.10;;;;;;;23.84;51.45;101450.72;10413064;28;20025;-92
2021/08/09 06:47:57;;;;;;;0.10;0.10;;;;;;;23.89;51.32;101451.69;10426339;28;20032;-92
2021/08/09 06:52:57;;;;;;;0.00;0.00;;;;;;;23.59;52.49;101462.56;10403564;28;20044;-92
2021/08/09 06:57:58;;;;;;;0.10;0.10;;;;;;;22.51;53.98;101458.53;10429285;28;20021;-92
2021/08/09 07:03:05;;;;;;;0.10;0.10;;;;;;;22.61;55.01;101474.31;10416332;28;20033;-92
2021/08/09 07:08:05;;;;;;;0.03;0.03;;;;;;;22.25;56.25;101467.75;10428518;28;20120;-92
2021/08/09 07:13:06;;;;;;;0.00;0.00;;;;;;;21.98;57.98;101458.94;10430831;28;20025;-91
2021/08/09 07:18:06;;;;;;;0.10;0.10;;;;;;;21.84;57.41;101463.59;10429329;28;20057;-92
2021/08/09 07:23:07;;;;;;;0.10;0.10;;;;;;;21.58;58.05;101466.47;10436127;28;20268;-92
2021/08/09 07:28:07;;;;;;;0.10;0.10;;;;;;;21.10;58.95;101475.81;10438582;28;20040;-92
2021/08/09 07:33:08;;;;;;;0.07;0.07;;;;;;;20.54;61.57;101487.19;10432152;28;20026;-93
2021/08/09 07:38:08;;;;;;;0.10;0.10;;;;;;;19.88;63.24;101479.81;10433271;28;20029;-92
2021/08/09 07:43:08;;;;;;;0.10;0.10;;;;;;;19.53;64.08;101468.25;10435782;28;20259;-91
2021/08/09 07:48:09;;;;;;;0.10;0.10;;;;;;;19.50;65.36;101501.06;10435436;28;20033;-91
2021/08/09 07:53:09;;;;;;;0.10;0.10;;;;;;;19.34;64.89;101481.44;10416471;28;20029;-92
2021/08/09 07:58:09;;;;;;;0.00;0.00;;;;;;;19.49;66.25;101493.97;10456222;28;20089;-91
2021/08/09 08:03:10;;;;;;;0.10;0.10;;;;;;;19.76;63.57;101511.19;10430158;28;20033;-91
2021/08/09 08:08:11;;;;;;;0.10;0.10;;;;;;;19.98;64.62;101506.44;10427978;28;20276;-91
2021/08/09 08:13:11;;;;;;;0.00;0.00;;;;;;;20.20;62.79;101504.41;10430882;28;20069;-91
2021/08/09 08:18:11;;;;;;;0.00;0.00;;;;;;;20.27;64.12;101500.66;10429811;28;20075;-91
2021/08/09 08:23:12;;;;;;;0.07;0.07;;;;;;;20.42;62.80;101514.00;10442785;28;20048;-91
2021/08/09 08:28:18;;;;;;;0.10;0.10;;;;;;;20.50;63.56;101510.25;10435310;28;20246;-91
2021/08/09 08:33:18;;;;;;;0.00;0.00;;;;;;;21.20;63.10;101503.28;10432715;28;20126;-91
2021/08/09 08:38:19;;;;;;;0.00;0.00;;;;;;;22.42;59.02;101522.28;10450886;28;20035;-91
2021/08/09 08:43:21;;;;;;;0.00;0.00;;;;;;;23.47;57.01;101511.47;10436381;28;20026;-92
2021/08/09 08:48:23;;;;;;;0.00;0.00;;;;;;;23.76;55.03;101502.72;10426479;28;20026;-91
2021/08/09 08:53:36;;;;;;;0.10;0.10;;;;;;;23.32;55.81;101510.19;10422394;28;20329;-91
2021/08/09 08:58:50;;;;;;;0.10;0.10;;;;;;;23.08;58.68;101514.63;10436534;28;20071;-92
2021/08/09 09:03:50;;;;;;;0.10;0.10;;;;;;;22.98;57.22;101526.84;10437303;28;20041;-92
2021/08/09 09:08:50;;;;;;;0.10;0.10;;;;;;;22.77;57.46;101527.22;10428359;28;20033;-92
2021/08/09 09:14:32;;;;;;;0.10;0.10;;;;;;;22.40;59.37;101532.56;10441856;28;20108;-93
2021/08/09 09:20:09;;;;;;;0.05;0.05;;;;;;;22.90;57.79;101529.81;10430424;28;20318;-93
2021/08/09 09:25:35;;;;;;;0.03;0.03;;;;;;;23.38;56.33;101536.44;10423050;28;20045;-93
2021/08/09 09:30:35;;;;;;;0.10;0.10;;;;;;;23.60;57.10;101534.91;10429212;28;20412;-93
2021/08/09 09:35:44;;;;;;;0.10;0.10;;;;;;;23.25;55.66;101543.69;10427850;28;20036;-92
2021/08/09 09:40:45;;;;;;;0.10;0.10;;;;;;;23.39;54.61;101557.97;10430483;28;20520;-92
2021/08/09 09:45:55;;;;;;;0.10;0.10;;;;;;;23.73;54.80;101561.97;10423136;28;20034;-92
2021/08/09 09:51:07;;;;;;;0.00;0.00;;;;;;;23.53;55.76;101560.53;10420889;28;20030;-92
2021/08/09 09:56:37;;;;;;;0.08;0.08;;;;;;;23.46;54.86;101556.00;10414358;28;20052;-91
2021/08/09 10:01:37;;;;;;;0.10;0.10;;;;;;;23.44;54.88;101560.81;10454263;28;20048;-92
2021/08/09 10:06:57;;;;;;;0.10;0.10;;;;;;;22.98;54.55;101564.03;10429744;28;20026;-90
2021/08/09 10:17:49;;;;;;;0.10;0.10;;;;;;;22.21;56.45;101569.63;10434610;28;20072;-92
2021/08/09 10:23:06;;;;;;;0.10;0.10;;;;;;;21.90;55.68;101570.38;10416580;28;20047;-92
2021/08/09 10:28:21;;;;;;;0.00;0.00;;;;;;;21.67;55.26;101565.47;10432018;28;20030;-92
2021/08/09 10:34:01;;;;;;;0.05;0.05;;;;;;;21.61;58.60;101596.16;10424205;28;20029;-92
2021/08/09 10:39:49;;;;;;;0.00;0.00;;;;;;;21.51;57.44;101579.53;10458566;28;20037;-92
2021/08/09 10:45:11;;;;;;;0.00;0.00;;;;;;;21.87;58.75;101590.63;10433006;28;20043;-92
2021/08/09 10:50:24;;;;;;;0.00;0.00;;;;;;;22.38;55.72;101599.78;10440105;28;20049;-92
2021/08/09 10:55:30;;;;;;;0.00;0.00;;;;;;;22.78;54.43;101594.91;10463361;28;20417;-92
2021/08/09 11:00:52;;;;;;;0.00;0.00;;;;;;;22.98;54.51;101602.94;10466467;28;20085;-92
2021/08/09 11:05:52;;;;;;;0.10;0.10;;;;;;;22.95;54.13;101599.78;10451734;28;20141;-92
2021/08/09 11:11:14;;;;;;;0.00;0.00;;;;;;;22.69;55.41;101598.09;10454263;28;20048;-92
2021/08/09 11:17:03;;;;;;;0.00;0.00;;;;;;;22.17;56.61;101595.56;10454411;28;20064;-92
2021/08/09 11:22:04;;;;;;;0.00;0.00;;;;;;;22.04;57.38;101609.13;10423072;22;20045;-63
2021/08/09 11:27:05;;;;;;;0.00;0.00;;;;;;;21.83;56.20;101613.81;10400300;28;20042;-64
2021/08/09 11:32:05;;;;;;;0.00;0.00;;;;;;;22.05;57.52;101605.38;10382981;28;20088;-64
2021/08/09 11:37:05;;;;;;;0.00;0.00;;;;;;;22.49;55.75;101623.53;10380681;28;20056;-64
2021/08/09 11:42:06;;;;;;;0.10;0.10;;;;;;;22.92;53.62;101614.66;10410368;28;20480;-64
2021/08/09 11:47:07;;;;;;;0.00;0.00;;;;;;;22.96;52.35;101610.47;10382017;28;20396;-64
2021/08/09 11:52:07;;;;;;;0.00;0.00;;;;;;;23.11;52.06;101620.16;10385945;28;20046;-63
2021/08/09 11:57:07;;;;;;;0.00;0.00;;;;;;;23.34;50.49;101608.66;10388739;28;20080;-63
2021/08/09 12:02:10;;;;;;;0.10;0.10;;;;;;;22.92;52.81;101616.50;10378156;28;20029;-64
2021/08/09 12:07:20;;;;;;;0.10;0.10;;;;;;;22.76;53.86;101624.16;10399583;28;20053;-62
2021/08/09 12:12:21;;;;;;;0.00;0.00;;;;;;;23.05;51.94;101622.69;10376235;28;20094;-63
2021/08/09 12:17:22;;;;;;;0.00;0.00;;;;;;;23.00;50.28;101622.53;10352984;28;20294;-63
2021/08/09 12:22:32;;;;;;;0.00;0.00;;;;;;;22.58;53.42;101622.22;10400425;23;20048;-61
2021/08/09 12:27:32;;;;;;;0.10;0.10;;;;;;;22.44;51.57;101620.63;10450923;28;20140;-65
2021/08/09 12:32:34;;;;;;;0.00;0.00;;;;;;;22.66;52.90;101623.84;10450551;28;20171;-64
2021/08/09 12:37:36;;;;;;;0.10;0.10;;;;;;;23.01;53.02;101618.78;10450944;28;20398;-64
2021/08/09 12:42:37;;;;;;;0.00;0.00;;;;;;;23.04;51.77;101621.03;10417295;28;20538;-63
2021/08/09 12:47:38;;;;;;;0.00;0.00;;;;;;;23.18;50.04;101623.63;10410048;28;20332;-65
2021/08/09 12:52:38;;;;;;;0.07;0.07;;;;;;;23.24;49.72;101607.28;10409138;28;20029;-64
2021/08/09 12:57:38;;;;;;;0.00;0.00;;;;;;;23.02;52.09;101614.16;10409727;28;20083;-64
2021/08/09 13:02:39;;;;;;;0.00;0.00;;;;;;;23.15;52.88;101605.06;10409662;28;20030;-65
2021/08/09 13:07:39;;;;;;;0.10;0.10;;;;;;;23.32;52.32;101602.59;10408955;28;20057;-65
2021/08/09 13:12:40;;;;;;;0.00;0.00;;;;;;;23.48;53.03;101604.72;10408347;28;20108;-65
2021/08/09 13:17:40;;;;;;;0.10;0.10;;;;;;;23.16;53.53;101607.56;10390566;28;20053;-62
2021/08/09 13:22:41;;;;;;;0.03;0.03;;;;;;;22.85;55.05;101608.44;10407654;28;20064;-64
2021/08/09 13:27:41;;;;;;;0.00;0.00;;;;;;;22.62;54.96;101609.03;10406555;28;20125;-64
2021/08/09 13:32:42;;;;;;;0.00;0.00;;;;;;;22.46;56.36;101604.97;10408483;28;20083;-64
2021/08/09 13:37:43;;;;;;;0.00;0.00;;;;;;;22.38;56.01;101607.94;10413237;28;20505;-65
2021/08/09 13:42:44;;;;;;;0.10;0.10;;;;;;;22.17;57.19;101602.81;10415897;28;20040;-65
2021/08/09 13:47:44;;;;;;;0.00;0.00;;;;;;;22.26;56.19;101604.25;10415590;28;20265;-63
2021/08/09 13:52:44;;;;;;;0.00;0.00;;;;;;;22.25;56.34;101598.00;10414100;28;20037;-65
2021/08/09 13:57:44;;;;;;;0.00;0.00;;;;;;;21.90;57.94;101606.50;10415327;28;20668;-65
2021/08/09 14:02:45;;;;;;;0.08;0.08;;;;;;;21.52;58.44;101603.69;10415251;28;20399;-65
2021/08/09 14:07:45;;;;;;;0.00;0.00;;;;;;;21.23;58.68;101604.97;10415054;28;20044;-61
2021/08/09 14:12:46;;;;;;;0.10;0.10;;;;;;;20.98;57.88;101616.47;10414028;28;20115;-61
2021/08/09 14:17:46;;;;;;;0.00;0.00;;;;;;;20.90;61.41;101605.03;10414122;28;20040;-61
2021/08/09 14:22:46;;;;;;;0.08;0.08;;;;;;;20.85;61.82;101599.38;10413979;28;20098;-61
2021/08/09 14:27:47;;;;;;;0.00;0.00;;;;;;;20.83;61.92;101598.75;10413752;28;20037;-61
2021/08/09 14:32:47;;;;;;;0.10;0.10;;;;;;;21.18;61.25;101608.34;10414042;28;20037;-61
2021/08/09 14:37:48;;;;;;;0.00;0.00;;;;;;;21.65;59.89;101584.69;10413269;28;20029;-62
2021/08/09 14:42:48;;;;;;;0.00;0.00;;;;;;;21.96;58.20;101593.94;10412891;28;20548;-62
2021/08/09 14:47:49;;;;;;;0.10;0.10;;;;;;;22.10;57.61;101592.00;10411437;28;20034;-63
2021/08/09 14:52:49;;;;;;;0.00;0.00;;;;;;;22.14;57.38;101601.38;10412409;28;20091;-63
2021/08/09 14:57:49;;;;;;;0.00;0.00;;;;;;;21.97;56.55;101595.63;10412450;28;20025;-63
2021/08/09 15:02:50;;;;;;;0.10;0.10;;;;;;;21.76;57.69;101580.50;10411987;28;20029;-64
2021/08/09 15:07:50;;;;;;;0.00;0.00;;;;;;;21.47;57.61;101585.38;10412703;28;20037;-64
2021/08/09 15:12:52;;;;;;;0.00;0.00;;;;;;;21.30;59.44;101581.44;10411970;28;20411;-64
2021/08/09 15:17:52;;;;;;;0.00;0.00;;;;;;;21.34;60.30;101574.53;10411756;28;20429;-64
2021/08/09 15:22:53;;;;;;;0.00;0.00;;;;;;;21.28;59.51;101574.56;10411224;28;20034;-64
2021/08/09 15:27:53;;;;;;;0.00;0.00;;;;;;;21.11;60.46;101575.00;10411341;28;20049;-64
2021/08/09 15:32:54;;;;;;;0.00;0.00;;;;;;;20.97;60.39;101576.91;10411168;28;20396;-64
2021/08/09 15:37:54;;;;;;;0.00;0.00;;;;;;;20.90;60.91;101584.19;10410979;28;20056;-64
2021/08/09 15:42:54;;;;;;;0.00;0.00;;;;;;;20.80;61.05;101575.66;10389797;28;20033;-65
2021/08/09 15:47:55;;;;;;;0.00;0.00;;;;;;;20.69;62.11;101579.00;10409867;28;20064;-64
2021/08/09 15:52:55;;;;;;;0.03;0.03;;;;;;;20.82;62.17;101588.97;10408146;28;20332;-64
2021/08/09 15:57:55;;;;;;;0.00;0.00;;;;;;;20.98;61.13;101585.88;10409551;28;20045;-63
2021/08/09 16:02:56;;;;;;;0.00;0.00;;;;;;;21.12;59.81;101579.38;10409823;28;20139;-64
2021/08/09 16:07:56;;;;;;;0.00;0.00;;;;;;;21.03;60.14;101580.63;10409550;28;20041;-64
2021/08/09 16:12:57;;;;;;;0.10;0.10;;;;;;;20.79;60.67;101588.34;10409704;28;20049;-64
2021/08/09 16:17:57;;;;;;;0.00;0.00;;;;;;;20.66;61.35;101592.94;10409617;28;20025;-64
2021/08/09 16:22:58;;;;;;;0.10;0.10;;;;;;;20.51;62.14;101595.81;10390797;28;20068;-64
2021/08/09 16:27:58;;;;;;;0.00;0.00;;;;;;;20.30;62.70;101604.91;10408763;28;20518;-62
2021/08/09 16:33:00;;;;;;;0.00;0.00;;;;;;;19.95;61.63;101596.06;10408340;28;20038;-62
2021/08/09 16:38:01;;;;;;;0.00;0.00;;;;;;;19.71;63.64;101595.56;10408902;28;20025;-65
2021/08/09 16:43:02;;;;;;;0.10;0.10;;;;;;;19.55;63.36;101585.91;10408298;28;20025;-64
2021/08/09 16:48:03;;;;;;;0.10;0.10;;;;;;;19.41;65.05;101579.59;10408050;28;20037;-65
2021/08/09 16:53:03;;;;;;;0.10;0.10;;;;;;;19.25;65.52;101574.50;10408221;28;20588;-64
2021/08/09 16:58:04;;;;;;;0.00;0.00;;;;;;;19.12;66.18;101582.53;10406332;28;20036;-65
2021/08/09 17:03:04;;;;;;;0.10;0.10;;;;;;;19.03;66.74;101583.72;10407609;28;20048;-64
2021/08/09 17:08:04;;;;;;;0.00;0.00;;;;;;;18.95;69.02;101581.97;10407450;28;20315;-64
2021/08/09 17:13:05;;;;;;;0.00;0.00;;;;;;;18.86;69.50;101581.28;10406667;28;20045;-64
2021/08/09 17:18:05;;;;;;;0.10;0.10;;;;;;;18.77;70.27;101610.28;10407264;28;20033;-64
2021/08/09 17:23:06;;;;;;;0.10;0.10;;;;;;;18.50;64.83;101640.69;10406836;28;20152;-62
2021/08/09 17:28:07;;;;;;;0.00;0.00;;;;;;;17.92;71.31;101686.50;10407016;28;20045;-62
2021/08/09 17:33:07;;;;;;;0.10;0.10;;;;;;;17.00;77.04;101691.22;10405732;28;20041;-66
2021/08/09 17:38:07;;;;;;;0.10;0.10;;;;;;;16.36;79.63;101672.63;10407700;28;20034;-66
2021/08/09 17:43:08;;;;;;;0.00;0.00;;;;;;;16.02;80.63;101661.19;10437655;28;20279;-65
2021/08/09 17:48:08;;;;;;;0.00;0.00;;;;;;;15.82;81.18;101647.34;10452704;28;20044;-66
2021/08/09 17:53:09;;;;;;;0.10;0.10;;;;;;;15.68;83.82;101642.69;10421874;28;20036;-65
2021/08/09 17:58:10;;;;;;;0.00;0.00;;;;;;;15.57;84.82;101634.97;10411759;28;20578;-65
2021/08/09 18:03:10;;;;;;;0.00;0.00;;;;;;;15.49;85.09;101648.41;10428617;28;20403;-65
2021/08/09 18:08:10;;;;;;;0.10;0.10;;;;;;;15.40;85.19;101639.53;10414100;28;20156;-64
2021/08/09 18:13:11;;;;;;;0.10;0.10;;;;;;;15.34;85.97;101654.47;10410694;28;20407;-65
2021/08/09 18:18:11;;;;;;;0.10;0.10;;;;;;;15.28;86.81;101657.84;10414451;28;20033;-64
2021/08/09 18:23:11;;;;;;;0.10;0.10;;;;;;;15.20;85.92;101665.91;10436319;23;20054;-62
2021/08/09 18:28:12;;;;;;;0.00;0.00;;;;;;;15.16;87.09;101670.78;10456610;28;20288;-62
2021/08/09 18:33:12;;;;;;;0.10;0.10;;;;;;;15.11;87.22;101674.97;10418722;28;20025;-62
2021/08/09 18:38:12;;;;;;;0.10;0.10;;;;;;;15.01;87.34;101674.28;10415013;28;20116;-63
2021/08/09 18:43:13;;;;;;;0.10;0.10;;;;;;;14.90;87.62;101681.69;10420996;28;20067;-63
2021/08/09 18:48:13;;;;;;;0.10;0.10;;;;;;;14.83;87.78;101686.00;10415113;28;20041;-63
2021/08/09 18:53:13;;;;;;;0.10;0.10;;;;;;;14.75;88.39;101688.72;10414109;28;20123;-63
2021/08/09 18:58:14;;;;;;;0.00;0.00;;;;;;;14.65;88.34;101701.41;10414637;28;20400;-62
2021/08/09 19:03:17;;;;;;;0.05;0.05;;;;;;;14.52;88.06;101703.75;10432672;28;20033;-62
2021/08/09 19:08:17;;;;;;;0.00;0.00;;;;;;;14.41;88.05;101704.84;10455368;28;20029;-62
2021/08/09 19:13:18;;;;;;;0.10;0.10;;;;;;;14.33;88.18;101700.28;10417225;28;20037;-62
2021/08/09 19:18:18;;;;;;;0.10;0.10;;;;;;;14.24;88.67;101712.00;10412778;28;20542;-62
2021/08/09 19:23:19;;;;;;;0.10;0.10;;;;;;;14.20;88.98;101722.19;10413330;28;20041;-62
2021/08/09 19:28:19;;;;;;;0.10;0.10;;;;;;;14.20;89.17;101724.03;10395376;28;20124;-62
2021/08/09 19:33:19;;;;;;;0.10;0.10;;;;;;;14.20;88.97;101732.91;10411663;28;20025;-62
2021/08/09 19:38:20;;;;;;;0.10;0.10;;;;;;;14.18;89.05;101723.34;10412407;28;20225;-62
2021/08/09 19:43:20;;;;;;;0.10;0.10;;;;;;;14.18;89.85;101726.03;10412457;28;20106;-62
2021/08/09 19:48:20;;;;;;;0.10;0.10;;;;;;;14.13;90.61;101709.59;10412126;28;20047;-62
2021/08/09 19:53:20;;;;;;;0.10;0.10;;;;;;;14.08;90.56;101693.16;10411884;28;20064;-62
2021/08/09 19:58:21;;;;;;;0.00;0.00;;;;;;;14.00;89.51;101669.88;10412191;28;20037;-61
2021/08/09 20:03:21;;;;;;;0.10;0.10;;;;;;;13.95;90.06;101691.75;10410665;28;20139;-62
2021/08/09 20:08:22;;;;;;;0.10;0.10;;;;;;;13.91;90.56;101706.50;10411808;28;20511;-62
2021/08/09 20:13:22;;;;;;;0.10;0.10;;;;;;;13.87;90.94;101712.31;10410291;28;20124;-62
2021/08/09 20:18:22;;;;;;;0.00;0.00;;;;;;;13.78;91.04;101704.22;10410568;28;20036;-61
2021/08/09 20:23:23;;;;;;;0.10;0.10;;;;;;;13.75;91.42;101687.66;10410229;28;20280;-61
2021/08/09 20:28:23;;;;;;;0.10;0.10;;;;;;;13.75;91.02;101683.13;10432546;28;20114;-61
2021/08/09 20:33:23;;;;;;;0.10;0.10;;;;;;;13.75;90.98;101684.97;10448170;28;20263;-62
2021/08/09 20:38:24;;;;;;;0.07;0.07;;;;;;;13.74;90.62;101675.28;10420854;28;20033;-61
2021/08/09 20:43:24;;;;;;;0.10;0.10;;;;;;;13.71;90.89;101667.56;10432393;28;20028;-62
2021/08/09 20:48:24;;;;;;;0.03;0.03;;;;;;;13.68;90.23;101663.34;10424379;28;20034;-61
2021/08/09 20:53:25;;;;;;;0.10;0.10;;;;;;;13.68;89.74;101667.88;10441429;28;20041;-62
2021/08/09 20:58:25;;;;;;;0.10;0.10;;;;;;;13.69;90.70;101672.22;10437275;28;20630;-62
2021/08/09 21:03:27;;;;;;;0.10;0.10;;;;;;;13.71;91.07;101678.25;10439915;28;20028;-61
2021/08/09 21:08:27;;;;;;;0.10;0.10;;;;;;;13.71;90.10;101675.59;10449161;28;20033;-61
2021/08/09 21:13:28;;;;;;;0.10;0.10;;;;;;;13.73;90.23;101686.97;10425580;28;20443;-62
2021/08/09 21:18:28;;;;;;;0.10;0.10;;;;;;;13.73;90.77;101669.06;10416192;28;20021;-62
2021/08/09 21:23:29;;;;;;;0.00;0.00;;;;;;;13.76;90.41;101675.97;10425417;28;20033;-61
2021/08/09 21:28:29;;;;;;;0.10;0.10;;;;;;;13.74;90.67;101712.75;10437451;28;20400;-62
2021/08/09 21:33:30;;;;;;;0.10;0.10;;;;;;;13.74;91.46;101767.13;10432704;28;20034;-62
2021/08/09 21:38:31;;;;;;;0.10;0.10;;;;;;;13.73;91.90;101772.63;10419318;28;20389;-62
2021/08/09 21:43:31;;;;;;;1.02;0.20;;;;;;;13.69;92.23;101760.56;10418589;28;20503;-62
2021/08/09 21:48:35;;;;;;;0.10;0.10;;;;;;;13.67;92.16;101727.75;10420307;28;20036;-61
2021/08/09 21:53:35;;;;;;;0.10;0.10;;;;;;;13.65;92.46;101708.34;10424097;28;20021;-62
2021/08/09 21:58:36;;;;;;;0.10;0.10;;;;;;;13.62;93.16;101700.63;10430455;28;20026;-62
2021/08/09 22:03:37;;;;;;;0.10;0.10;;;;;;;13.63;92.98;101691.59;10451258;28;20033;-62
2021/08/09 22:08:37;;;;;;;0.10;0.10;;;;;;;13.64;93.80;101674.53;10434582;28;20291;-62
2021/08/09 22:13:38;;;;;;;0.10;0.10;;;;;;;13.68;93.61;101678.59;10433850;28;20033;-61
2021/08/09 22:18:39;;;;;;;0.10;0.10;;;;;;;13.65;93.24;101663.66;10440147;28;20033;-62
2021/08/09 22:23:39;;;;;;;0.10;0.10;;;;;;;13.57;93.45;101661.78;10442363;28;20040;-61
2021/08/09 22:28:40;;;;;;;0.10;0.10;;;;;;;13.47;92.96;101655.72;10445252;28;20025;-62
2021/08/09 22:33:41;;;;;;;0.20;0.20;;;;;;;13.38;93.37;101645.09;10444444;28;20116;-61
2021/08/09 22:38:41;;;;;;;0.10;0.10;;;;;;;13.30;93.33;101643.22;10441161;28;20045;-62
2021/08/09 22:43:42;;;;;;;0.10;0.10;;;;;;;13.21;93.17;101646.81;10454566;28;20037;-62
2021/08/09 22:48:43;;;;;;;0.10;0.10;;;;;;;13.12;93.08;101652.09;10451635;28;20083;-62
2021/08/09 22:53:43;;;;;;;0.10;0.10;;;;;;;13.02;93.17;101656.69;10412970;28;20061;-62
2021/08/09 22:58:44;;;;;;;0.05;0.05;;;;;;;12.96;93.92;101665.31;10427034;28;20025;-62
2021/08/09 23:03:44;;;;;;;0.10;0.10;;;;;;;12.89;93.84;101677.66;10441528;28;20427;-62
2021/08/09 23:08:44;;;;;;;0.10;0.10;;;;;;;12.82;94.26;101669.38;10430097;28;20391;-62
2021/08/09 23:13:45;;;;;;;0.10;0.10;;;;;;;12.78;94.87;101672.53;10443375;28;20053;-62
2021/08/09 23:18:45;;;;;;;0.10;0.10;;;;;;;12.76;95.08;101661.13;10452753;28;20028;-62